createdAt,value
2023-07-20T00:00:07.045Z,100.00
2023-07-20T00:05:15.823Z,95.72
2023-07-20T00:10:18.083Z,92.45
2023-07-20T00:15:20.798Z,91.74
2023-07-20T00:20:26.706Z,92.51
2023-07-20T00:25:29.457Z,89.74
2023-07-20T00:30:31.864Z,93.31
2023-07-20T00:35:34.702Z,92.00
2023-07-20T00:40:41.145Z,93.15
2023-07-20T00:45:45.640Z,94.93
2023-07-20T00:50:49.846Z,97.35
2023-07-20T00:55:52.582Z,100.00
2023-07-20T01:00:55.843Z,100.00
2023-07-20T01:06:20.104Z,100.00
2023-07-20T01:11:52.600Z,100.00
2023-07-20T01:16:55.449Z,100.00
2023-07-20T01:22:10.990Z,100.00
2023-07-20T01:27:39.690Z,100.00
2023-07-20T01:32:45.190Z,100.00
2023-07-20T01:37:48.796Z,100.00
2023-07-20T01:42:53.150Z,100.00
2023-07-20T01:47:55.822Z,100.00
2023-07-20T01:52:59.008Z,100.00
2023-07-20T01:58:02.301Z,100.00
2023-07-20T02:03:04.997Z,100.00
2023-07-20T02:08:07.266Z,100.00
2023-07-20T02:13:09.937Z,100.00
2023-07-20T02:18:12.093Z,100.00
2023-07-20T02:23:14.795Z,100.00
2023-07-20T02:28:17.440Z,100.00
2023-07-20T02:33:21.398Z,100.00
2023-07-20T02:38:23.556Z,100.00
2023-07-20T02:43:26.764Z,100.00
2023-07-20T02:48:28.929Z,100.00
2023-07-20T02:53:31.643Z,100.00
2023-07-20T02:58:41.398Z,100.00
2023-07-20T03:03:48.170Z,100.00
2023-07-20T03:08:53.339Z,100.00
2023-07-20T03:13:56.087Z,100.00
2023-07-20T03:18:59.431Z,100.00
2023-07-20T03:24:02.450Z,100.00
2023-07-20T03:29:07.009Z,100.00
2023-07-20T03:34:10.253Z,100.00
2023-07-20T03:39:12.804Z,100.00
2023-07-20T03:44:16.028Z,100.00
2023-07-20T03:49:19.003Z,100.00
2023-07-20T03:54:21.587Z,100.00
2023-07-20T03:59:24.278Z,100.00
2023-07-20T04:04:27.323Z,100.00
2023-07-20T04:09:30.063Z,100.00
2023-07-20T04:21:30.624Z,100.00
2023-07-20T04:26:32.925Z,100.00
2023-07-20T04:31:35.846Z,100.00
2023-07-20T04:36:40.077Z,100.00
2023-07-20T04:48:18.903Z,100.00
2023-07-20T04:53:26.845Z,100.00
2023-07-20T04:58:30.361Z,100.00
2023-07-20T05:03:32.896Z,100.00
2023-07-20T05:08:36.323Z,100.00
2023-07-20T05:13:38.886Z,100.00
2023-07-20T05:18:41.141Z,100.00
2023-07-20T05:23:44.777Z,100.00
2023-07-20T05:28:49.144Z,100.00
2023-07-20T05:33:52.014Z,100.00
2023-07-20T05:38:54.390Z,100.00
2023-07-20T05:43:57.149Z,100.00
2023-07-20T05:48:59.785Z,100.00
2023-07-20T06:13:47.096Z,89.08
2023-07-20T06:18:49.470Z,87.44
2023-07-20T06:23:52.456Z,84.87
2023-07-20T06:28:55.353Z,86.99
2023-07-20T06:33:57.760Z,82.28
2023-07-20T06:44:06.814Z,54.83
2023-07-20T07:00:59.760Z,38.33
2023-07-20T07:06:02.835Z,37.44
2023-07-20T07:11:06.897Z,38.28
2023-07-20T07:16:09.885Z,37.33
2023-07-20T07:21:13.116Z,39.34
2023-07-20T07:26:15.833Z,41.36
2023-07-20T07:31:18.100Z,38.38
2023-07-20T07:36:21.163Z,39.33
2023-07-20T07:41:24.232Z,41.49
2023-07-20T07:46:27.103Z,40.58
2023-07-20T07:51:29.442Z,41.31
2023-07-20T07:56:32.277Z,41.10
2023-07-20T08:01:38.115Z,37.50
2023-07-20T08:06:40.779Z,35.99
2023-07-20T08:11:43.530Z,37.23
2023-07-20T08:16:47.199Z,34.08
2023-07-20T08:21:49.919Z,32.84
2023-07-20T08:26:52.511Z,33.22
2023-07-20T08:31:55.056Z,34.45
2023-07-20T08:36:58.609Z,35.36
2023-07-20T08:42:07.466Z,34.14
2023-07-20T08:47:10.329Z,34.33
2023-07-20T08:52:13.300Z,35.19
2023-07-20T08:57:16.738Z,35.22
2023-07-20T09:02:20.490Z,34.87
2023-07-20T09:07:23.910Z,34.35
2023-07-20T09:12:27.911Z,33.62
2023-07-20T09:24:35.782Z,36.50
2023-07-20T09:29:52.083Z,35.51
2023-07-20T09:34:54.473Z,35.84
2023-07-20T09:45:03.038Z,36.00
2023-07-20T09:55:18.296Z,36.95
2023-07-20T10:12:18.680Z,37.60
2023-07-20T10:17:23.022Z,36.42
2023-07-20T10:27:40.611Z,36.04
2023-07-20T10:32:44.405Z,36.79
2023-07-20T10:37:54.806Z,36.44
2023-07-20T10:43:10.598Z,37.33
2023-07-20T10:48:20.824Z,36.48
2023-07-20T10:53:23.458Z,36.43
2023-07-20T10:58:29.993Z,35.63
2023-07-20T11:03:37.543Z,34.85
2023-07-20T11:08:47.944Z,36.68
2023-07-20T11:13:58.500Z,37.12
2023-07-20T11:19:01.271Z,37.06
2023-07-20T11:24:05.567Z,36.06
2023-07-20T11:29:20.947Z,34.59
2023-07-20T11:34:32.658Z,35.30
2023-07-20T11:46:22.588Z,32.53
2023-07-20T11:51:26.345Z,29.38
2023-07-20T11:56:29.851Z,29.97
2023-07-20T12:01:33.861Z,26.26
2023-07-20T12:06:36.671Z,26.57
2023-07-20T12:11:40.261Z,29.76
2023-07-20T12:16:42.931Z,32.92
2023-07-20T12:21:45.765Z,34.26
2023-07-20T12:26:48.444Z,39.33
2023-07-20T12:31:51.257Z,42.11
2023-07-20T12:36:53.558Z,45.68
2023-07-20T12:41:56.179Z,47.91
2023-07-20T12:46:58.570Z,45.75
2023-07-20T12:52:01.388Z,44.93
2023-07-20T13:02:09.927Z,42.38
2023-07-20T13:12:19.010Z,45.93
2023-07-20T13:17:21.720Z,44.84
2023-07-20T13:22:27.605Z,43.43
2023-07-20T13:27:49.951Z,44.08
2023-07-20T13:32:52.891Z,44.17
2023-07-20T13:37:58.162Z,43.43
2023-07-20T13:43:00.915Z,43.86
2023-07-20T13:48:06.652Z,46.30
2023-07-20T13:58:33.753Z,45.37
2023-07-20T14:03:38.121Z,43.60
2023-07-20T14:08:42.876Z,44.52
2023-07-20T14:13:47.959Z,46.53
2023-07-20T14:18:51.519Z,52.97
2023-07-20T14:23:57.260Z,50.83
2023-07-20T14:29:00.106Z,47.92
2023-07-20T14:34:02.654Z,47.79
2023-07-20T14:39:05.934Z,48.56
2023-07-20T14:44:08.712Z,50.75
2023-07-20T15:07:39.247Z,56.05
2023-07-20T15:12:41.544Z,51.89
2023-07-20T15:17:46.694Z,54.30
2023-07-20T15:22:50.008Z,53.00
2023-07-20T15:27:53.412Z,52.59
2023-07-20T15:38:03.565Z,61.10
2023-07-20T15:43:21.072Z,68.45
2023-07-20T15:48:24.493Z,60.67
2023-07-20T15:53:27.334Z,60.11
2023-07-20T15:58:29.678Z,59.39
2023-07-20T16:08:37.834Z,53.36
2023-07-20T16:13:40.471Z,56.62
2023-07-20T16:18:43.298Z,52.61
2023-07-20T16:23:46.568Z,52.90
2023-07-20T16:35:49.300Z,55.01
2023-07-20T16:46:56.102Z,61.86
2023-07-20T16:51:27.930Z,59.74
2023-07-20T16:56:30.682Z,59.49
2023-07-20T17:01:34.684Z,59.58
2023-07-20T17:06:37.546Z,62.48
2023-07-20T17:11:40.699Z,73.35
2023-07-20T17:16:43.714Z,62.37
2023-07-20T17:21:46.637Z,69.69
2023-07-20T17:32:12.028Z,75.45
2023-07-20T17:37:18.151Z,80.16
2023-07-20T17:47:26.871Z,93.38
2023-07-20T17:52:29.686Z,98.83
2023-07-20T17:57:32.758Z,99.46
2023-07-20T18:02:35.576Z,100.00
2023-07-20T18:07:38.406Z,100.00
2023-07-20T18:12:42.518Z,100.00
2023-07-20T18:17:45.340Z,100.00
2023-07-20T18:22:47.642Z,100.00
2023-07-20T18:27:50.355Z,100.00
2023-07-20T18:32:53.196Z,100.00
2023-07-20T18:37:56.138Z,100.00
2023-07-20T18:42:58.804Z,100.00
2023-07-20T18:48:02.042Z,100.00
2023-07-20T18:53:05.396Z,100.00
2023-07-20T18:58:08.204Z,100.00
2023-07-20T19:03:10.997Z,100.00
2023-07-20T19:08:14.014Z,100.00
2023-07-20T19:13:16.727Z,100.00
2023-07-20T19:18:19.401Z,100.00
2023-07-20T19:23:22.272Z,100.00
2023-07-20T19:28:25.076Z,100.00
2023-07-20T19:33:27.649Z,100.00
2023-07-20T19:38:30.501Z,100.00
2023-07-20T19:43:34.001Z,100.00
2023-07-20T19:48:38.190Z,100.00
2023-07-20T19:54:30.729Z,100.00
2023-07-20T19:59:03.964Z,100.00
2023-07-20T20:09:12.140Z,100.00
2023-07-20T20:14:17.851Z,100.00
2023-07-20T20:19:20.879Z,100.00
2023-07-20T20:24:23.547Z,100.00
2023-07-20T20:29:26.568Z,100.00
2023-07-20T20:34:29.462Z,100.00
2023-07-20T20:39:32.348Z,100.00
2023-07-20T20:44:38.118Z,100.00
2023-07-20T20:49:46.504Z,100.00
2023-07-20T20:54:49.633Z,100.00
2023-07-20T20:59:52.287Z,100.00
2023-07-20T21:04:54.946Z,100.00
2023-07-20T21:16:43.568Z,100.00
2023-07-20T21:21:45.718Z,100.00
2023-07-20T21:26:48.232Z,100.00
2023-07-20T21:31:50.302Z,100.00
2023-07-20T21:36:52.752Z,100.00
2023-07-20T21:41:54.792Z,100.00
2023-07-20T21:46:57.527Z,100.00
2023-07-20T21:52:00.037Z,100.00
2023-07-20T21:57:02.697Z,100.00
2023-07-20T22:02:05.246Z,100.00
2023-07-20T22:07:15.174Z,100.00
2023-07-20T22:12:18.257Z,100.00
2023-07-20T22:17:30.315Z,100.00
2023-07-20T22:22:38.296Z,100.00
2023-07-20T22:27:40.859Z,100.00
2023-07-20T22:32:47.323Z,100.00
2023-07-20T22:37:51.619Z,100.00
2023-07-20T22:42:54.244Z,100.00
2023-07-20T22:47:57.300Z,100.00
2023-07-20T22:52:59.371Z,100.00
2023-07-20T22:58:01.836Z,100.00
2023-07-20T23:03:05.095Z,100.00
2023-07-20T23:08:08.051Z,100.00
2023-07-20T23:13:10.695Z,100.00
2023-07-20T23:18:13.513Z,100.00
2023-07-20T23:23:16.029Z,100.00
2023-07-20T23:28:18.690Z,100.00
2023-07-20T23:33:23.378Z,100.00
2023-07-20T23:38:26.312Z,100.00
2023-07-20T23:43:28.919Z,100.00
2023-07-20T23:48:42.776Z,100.00
2023-07-20T23:53:46.653Z,100.00
2023-07-20T23:58:49.005Z,100.00
